sensor_id;sensor_type;location;lat;lon;timestamp;pressure;altitude;pressure_sealevel;temperature;humidity
51986;BME280;38002;53.296;6.600;2023-03-31T00:03:20;100433.34;;;9.60;87.71
51986;BME280;38002;53.296;6.600;2023-03-31T00:08:21;100428.41;;;9.55;88.35
51986;BME280;38002;53.296;6.600;2023-03-31T00:13:21;100425.19;;;9.52;89.29
51986;BME280;38002;53.296;6.600;2023-03-31T00:18:22;100425.84;;;9.54;89.47
51986;BME280;38002;53.296;6.600;2023-03-31T00:23:24;100400.41;;;9.55;87.94
51986;BME280;38002;53.296;6.600;2023-03-31T00:28:26;100405.50;;;9.58;89.97
51986;BME280;38002;53.296;6.600;2023-03-31T00:33:27;100389.75;;;9.62;88.93
51986;BME280;38002;53.296;6.600;2023-03-31T00:38:28;100368.69;;;9.64;89.11
51986;BME280;38002;53.296;6.600;2023-03-31T00:43:31;100362.41;;;9.63;88.60
51986;BME280;38002;53.296;6.600;2023-03-31T00:48:33;100348.50;;;9.58;89.00
51986;BME280;38002;53.296;6.600;2023-03-31T00:53:35;100338.97;;;9.54;88.11
51986;BME280;38002;53.296;6.600;2023-03-31T00:58:37;100342.38;;;9.48;88.12
51986;BME280;38002;53.296;6.600;2023-03-31T01:03:43;100335.59;;;9.44;88.49
51986;BME280;38002;53.296;6.600;2023-03-31T01:08:47;100320.31;;;9.35;89.45
51986;BME280;38002;53.296;6.600;2023-03-31T01:13:50;100323.69;;;9.37;87.92
51986;BME280;38002;53.296;6.600;2023-03-31T01:18:52;100310.63;;;9.32;88.17
51986;BME280;38002;53.296;6.600;2023-03-31T01:45:01;100281.28;;;9.11;89.79
51986;BME280;38002;53.296;6.600;2023-03-31T01:55:23;100262.63;;;9.08;88.93
51986;BME280;38002;53.296;6.600;2023-03-31T02:00:31;100245.16;;;9.03;88.37
51986;BME280;38002;53.296;6.600;2023-03-31T02:05:42;100249.56;;;9.04;89.08
51986;BME280;38002;53.296;6.600;2023-03-31T02:10:44;100247.72;;;9.04;89.79
51986;BME280;38002;53.296;6.600;2023-03-31T02:15:47;100242.97;;;9.06;90.85
51986;BME280;38002;53.296;6.600;2023-03-31T02:20:51;100226.53;;;9.08;90.13
51986;BME280;38002;53.296;6.600;2023-03-31T02:25:59;100223.66;;;9.09;89.58
51986;BME280;38002;53.296;6.600;2023-03-31T02:31:22;100211.63;;;9.12;90.42
51986;BME280;38002;53.296;6.600;2023-03-31T02:36:25;100210.59;;;9.13;89.85
51986;BME280;38002;53.296;6.600;2023-03-31T02:41:26;100195.00;;;9.15;89.82
51986;BME280;38002;53.296;6.600;2023-03-31T02:46:27;100196.53;;;9.18;89.09
51986;BME280;38002;53.296;6.600;2023-03-31T03:08:45;100144.47;;;9.30;89.42
51986;BME280;38002;53.296;6.600;2023-03-31T03:19:21;100124.78;;;9.36;89.12
51986;BME280;38002;53.296;6.600;2023-03-31T03:24:22;100114.47;;;9.40;88.96
51986;BME280;38002;53.296;6.600;2023-03-31T03:29:28;100109.69;;;9.42;88.85
51986;BME280;38002;53.296;6.600;2023-03-31T03:34:28;100099.19;;;9.39;89.24
51986;BME280;38002;53.296;6.600;2023-03-31T03:39:29;100087.84;;;9.35;89.05
51986;BME280;38002;53.296;6.600;2023-03-31T03:44:29;100070.72;;;9.35;89.59
51986;BME280;38002;53.296;6.600;2023-03-31T03:49:30;100065.28;;;9.35;89.44
51986;BME280;38002;53.296;6.600;2023-03-31T03:54:30;100052.72;;;9.34;89.76
51986;BME280;38002;53.296;6.600;2023-03-31T03:59:31;100050.19;;;9.32;89.49
51986;BME280;38002;53.296;6.600;2023-03-31T04:04:32;100027.66;;;9.32;89.95
51986;BME280;38002;53.296;6.600;2023-03-31T04:09:32;100028.31;;;9.34;90.57
51986;BME280;38002;53.296;6.600;2023-03-31T04:14:33;100007.28;;;9.36;89.67
51986;BME280;38002;53.296;6.600;2023-03-31T04:19:33;100013.22;;;9.39;90.32
51986;BME280;38002;53.296;6.600;2023-03-31T04:24:34;99998.44;;;9.42;90.39
51986;BME280;38002;53.296;6.600;2023-03-31T04:29:37;99983.69;;;9.44;89.87
51986;BME280;38002;53.296;6.600;2023-03-31T04:34:38;99978.75;;;9.48;90.34
51986;BME280;38002;53.296;6.600;2023-03-31T04:39:38;99969.75;;;9.47;93.26
51986;BME280;38002;53.296;6.600;2023-03-31T04:44:39;99967.88;;;9.48;91.80
51986;BME280;38002;53.296;6.600;2023-03-31T04:49:39;99948.91;;;9.48;90.67
51986;BME280;38002;53.296;6.600;2023-03-31T04:54:40;99940.75;;;9.48;92.91
51986;BME280;38002;53.296;6.600;2023-03-31T04:59:40;99927.34;;;9.46;92.68
51986;BME280;38002;53.296;6.600;2023-03-31T05:04:40;99928.38;;;9.45;91.33
51986;BME280;38002;53.296;6.600;2023-03-31T05:09:41;99916.66;;;9.45;93.09
51986;BME280;38002;53.296;6.600;2023-03-31T05:14:41;99910.22;;;9.46;92.45
51986;BME280;38002;53.296;6.600;2023-03-31T05:19:43;99913.94;;;9.45;91.98
51986;BME280;38002;53.296;6.600;2023-03-31T05:24:43;99899.38;;;9.46;92.80
51986;BME280;38002;53.296;6.600;2023-03-31T05:29:43;99887.50;;;9.47;92.79
51986;BME280;38002;53.296;6.600;2023-03-31T05:34:44;99885.63;;;9.47;92.94
51986;BME280;38002;53.296;6.600;2023-03-31T05:39:45;99845.38;;;9.28;93.13
51986;BME280;38002;53.296;6.600;2023-03-31T05:44:46;99878.16;;;9.49;94.25
51986;BME280;38002;53.296;6.600;2023-03-31T05:49:46;99865.25;;;9.51;94.11
51986;BME280;38002;53.296;6.600;2023-03-31T05:54:46;99853.19;;;9.54;93.32
51986;BME280;38002;53.296;6.600;2023-03-31T05:59:47;99846.56;;;9.56;93.71
51986;BME280;38002;53.296;6.600;2023-03-31T06:04:47;99845.56;;;9.57;93.99
51986;BME280;38002;53.296;6.600;2023-03-31T06:09:49;99841.13;;;9.56;93.37
51986;BME280;38002;53.296;6.600;2023-03-31T06:14:49;99830.09;;;9.58;94.92
51986;BME280;38002;53.296;6.600;2023-03-31T06:19:50;99825.50;;;9.58;94.03
51986;BME280;38002;53.296;6.600;2023-03-31T06:24:50;99807.34;;;9.59;93.54
51986;BME280;38002;53.296;6.600;2023-03-31T06:29:51;99806.34;;;9.60;93.51
51986;BME280;38002;53.296;6.600;2023-03-31T06:34:51;99798.19;;;9.60;93.38
51986;BME280;38002;53.296;6.600;2023-03-31T06:39:52;99790.69;;;9.62;94.79
51986;BME280;38002;53.296;6.600;2023-03-31T06:44:52;99790.34;;;9.65;94.06
51986;BME280;38002;53.296;6.600;2023-03-31T06:49:54;99776.78;;;9.65;93.00
51986;BME280;38002;53.296;6.600;2023-03-31T06:54:55;99775.75;;;9.66;93.71
51986;BME280;38002;53.296;6.600;2023-03-31T06:59:55;99758.09;;;9.70;93.57
51986;BME280;38002;53.296;6.600;2023-03-31T07:04:56;99753.50;;;9.71;93.54
51986;BME280;38002;53.296;6.600;2023-03-31T07:09:56;99740.56;;;9.73;94.67
51986;BME280;38002;53.296;6.600;2023-03-31T07:14:57;99736.63;;;9.75;93.53
51986;BME280;38002;53.296;6.600;2023-03-31T07:19:58;99728.78;;;9.80;93.45
51986;BME280;38002;53.296;6.600;2023-03-31T07:24:59;99731.31;;;9.82;93.88
51986;BME280;38002;53.296;6.600;2023-03-31T07:30:00;99716.91;;;9.81;93.10
51986;BME280;38002;53.296;6.600;2023-03-31T07:35:00;99707.91;;;9.81;93.60
51986;BME280;38002;53.296;6.600;2023-03-31T07:40:01;99709.59;;;9.82;94.65
51986;BME280;38002;53.296;6.600;2023-03-31T07:45:02;99706.44;;;9.78;94.21
51986;BME280;38002;53.296;6.600;2023-03-31T07:50:06;99701.63;;;9.80;93.98
51986;BME280;38002;53.296;6.600;2023-03-31T07:55:07;99691.63;;;9.81;94.77
51986;BME280;38002;53.296;6.600;2023-03-31T08:00:09;99692.94;;;9.85;93.68
51986;BME280;38002;53.296;6.600;2023-03-31T08:05:12;99672.06;;;9.85;94.67
51986;BME280;38002;53.296;6.600;2023-03-31T08:10:16;99672.34;;;9.90;94.30
51986;BME280;38002;53.296;6.600;2023-03-31T08:15:17;99662.50;;;9.89;94.69
51986;BME280;38002;53.296;6.600;2023-03-31T08:20:18;99666.06;;;9.90;94.64
51986;BME280;38002;53.296;6.600;2023-03-31T08:25:18;99658.38;;;9.93;93.95
51986;BME280;38002;53.296;6.600;2023-03-31T08:30:20;99650.25;;;9.93;94.49
51986;BME280;38002;53.296;6.600;2023-03-31T08:35:20;99633.94;;;9.93;94.66
51986;BME280;38002;53.296;6.600;2023-03-31T08:40:24;99632.94;;;9.94;93.90
51986;BME280;38002;53.296;6.600;2023-03-31T08:45:29;99620.66;;;9.98;94.02
51986;BME280;38002;53.296;6.600;2023-03-31T08:50:34;99624.69;;;10.02;94.47
51986;BME280;38002;53.296;6.600;2023-03-31T08:55:55;99609.69;;;10.07;94.28
51986;BME280;38002;53.296;6.600;2023-03-31T09:01:13;99613.53;;;10.12;93.42
51986;BME280;38002;53.296;6.600;2023-03-31T09:06:22;99604.84;;;10.17;93.59
51986;BME280;38002;53.296;6.600;2023-03-31T09:11:40;99597.16;;;10.20;94.31
51986;BME280;38002;53.296;6.600;2023-03-31T09:16:51;99597.31;;;10.19;94.69
51986;BME280;38002;53.296;6.600;2023-03-31T09:21:55;99595.47;;;10.19;93.67
51986;BME280;38002;53.296;6.600;2023-03-31T09:27:00;99597.44;;;10.25;93.74
51986;BME280;38002;53.296;6.600;2023-03-31T09:32:14;99586.34;;;10.27;94.68
51986;BME280;38002;53.296;6.600;2023-03-31T09:37:15;99584.97;;;10.31;94.62
51986;BME280;38002;53.296;6.600;2023-03-31T09:42:15;99585.03;;;10.37;94.58
51986;BME280;38002;53.296;6.600;2023-03-31T09:47:24;99579.41;;;10.39;94.17
51986;BME280;38002;53.296;6.600;2023-03-31T09:52:33;99573.56;;;10.42;94.41
51986;BME280;38002;53.296;6.600;2023-03-31T09:57:38;99574.03;;;10.45;94.31
51986;BME280;38002;53.296;6.600;2023-03-31T10:02:52;99568.41;;;10.47;94.17
51986;BME280;38002;53.296;6.600;2023-03-31T10:13:22;99561.28;;;10.67;93.43
51986;BME280;38002;53.296;6.600;2023-03-31T10:18:33;99557.84;;;10.80;93.16
51986;BME280;38002;53.296;6.600;2023-03-31T10:23:34;99551.69;;;10.92;94.20
51986;BME280;38002;53.296;6.600;2023-03-31T10:28:35;99558.97;;;11.13;93.78
51986;BME280;38002;53.296;6.600;2023-03-31T10:33:42;99553.44;;;11.28;93.17
51986;BME280;38002;53.296;6.600;2023-03-31T10:38:45;99537.19;;;11.41;92.82
51986;BME280;38002;53.296;6.600;2023-03-31T10:43:49;99546.88;;;11.50;92.13
51986;BME280;38002;53.296;6.600;2023-03-31T10:48:50;99548.34;;;11.53;92.14
51986;BME280;38002;53.296;6.600;2023-03-31T10:53:53;99542.47;;;11.49;92.30
51986;BME280;38002;53.296;6.600;2023-03-31T11:14:57;99540.69;;;11.35;92.86
51986;BME280;38002;53.296;6.600;2023-03-31T11:25:24;99535.41;;;11.55;92.68
51986;BME280;38002;53.296;6.600;2023-03-31T11:30:37;99528.53;;;11.65;92.46
51986;BME280;38002;53.296;6.600;2023-03-31T11:35:50;99521.34;;;11.86;92.35
51986;BME280;38002;53.296;6.600;2023-03-31T11:51:57;99512.50;;;12.44;90.29
51986;BME280;38002;53.296;6.600;2023-03-31T11:57:02;99502.44;;;12.64;89.94
51986;BME280;38002;53.296;6.600;2023-03-31T12:02:16;99482.75;;;12.89;88.58
51986;BME280;38002;53.296;6.600;2023-03-31T12:07:31;99485.22;;;13.03;87.98
51986;BME280;38002;53.296;6.600;2023-03-31T12:12:40;99489.03;;;13.02;88.08
51986;BME280;38002;53.296;6.600;2023-03-31T12:17:44;99498.91;;;12.97;88.88
51986;BME280;38002;53.296;6.600;2023-03-31T12:22:48;99492.81;;;12.88;88.83
51986;BME280;38002;53.296;6.600;2023-03-31T12:27:49;99495.13;;;12.71;88.22
51986;BME280;38002;53.296;6.600;2023-03-31T12:32:56;99494.06;;;12.46;88.89
51986;BME280;38002;53.296;6.600;2023-03-31T12:43:27;99486.22;;;12.17;89.86
51986;BME280;38002;53.296;6.600;2023-03-31T12:48:54;99483.91;;;12.07;90.10
51986;BME280;38002;53.296;6.600;2023-03-31T12:59:17;99484.72;;;12.01;90.71
51986;BME280;38002;53.296;6.600;2023-03-31T13:04:25;99463.19;;;12.19;91.33
51986;BME280;38002;53.296;6.600;2023-03-31T13:14:37;99440.13;;;12.94;91.08
51986;BME280;38002;53.296;6.600;2023-03-31T13:24:44;99441.56;;;13.03;89.80
51986;BME280;38002;53.296;6.600;2023-03-31T13:29:45;99434.47;;;12.83;88.85
51986;BME280;38002;53.296;6.600;2023-03-31T13:34:49;99430.91;;;12.82;89.22
51986;BME280;38002;53.296;6.600;2023-03-31T13:40:06;99431.28;;;13.05;90.23
51986;BME280;38002;53.296;6.600;2023-03-31T13:50:52;99418.22;;;13.40;88.80
51986;BME280;38002;53.296;6.600;2023-03-31T14:01:58;99423.34;;;13.10;88.01
51986;BME280;38002;53.296;6.600;2023-03-31T14:07:11;99434.69;;;12.81;87.16
51986;BME280;38002;53.296;6.600;2023-03-31T14:12:20;99436.78;;;12.53;88.60
51986;BME280;38002;53.296;6.600;2023-03-31T14:17:26;99443.69;;;12.22;87.73
51986;BME280;38002;53.296;6.600;2023-03-31T14:22:56;99438.00;;;12.11;88.75
51986;BME280;38002;53.296;6.600;2023-03-31T14:33:33;99419.38;;;12.34;88.04
51986;BME280;38002;53.296;6.600;2023-03-31T14:38:37;99422.09;;;12.34;87.92
51986;BME280;38002;53.296;6.600;2023-03-31T14:43:43;99416.44;;;12.36;88.16
51986;BME280;38002;53.296;6.600;2023-03-31T14:48:47;99414.97;;;12.40;88.21
51986;BME280;38002;53.296;6.600;2023-03-31T14:53:54;99409.53;;;12.40;86.06
51986;BME280;38002;53.296;6.600;2023-03-31T14:58:55;99392.31;;;12.52;87.54
51986;BME280;38002;53.296;6.600;2023-03-31T15:03:56;99393.56;;;12.69;87.79
51986;BME280;38002;53.296;6.600;2023-03-31T15:08:57;99391.25;;;12.80;86.69
51986;BME280;38002;53.296;6.600;2023-03-31T15:13:58;99384.94;;;12.86;87.72
51986;BME280;38002;53.296;6.600;2023-03-31T15:19:00;99387.66;;;12.86;85.60
51986;BME280;38002;53.296;6.600;2023-03-31T15:24:02;99388.94;;;12.83;87.38
51986;BME280;38002;53.296;6.600;2023-03-31T15:34:34;99379.28;;;12.74;86.61
51986;BME280;38002;53.296;6.600;2023-03-31T15:39:36;99377.00;;;12.64;86.69
51986;BME280;38002;53.296;6.600;2023-03-31T15:44:43;99386.47;;;12.55;86.15
51986;BME280;38002;53.296;6.600;2023-03-31T15:50:09;99369.03;;;12.43;85.34
51986;BME280;38002;53.296;6.600;2023-03-31T15:55:30;99371.97;;;12.35;85.10
51986;BME280;38002;53.296;6.600;2023-03-31T16:10:33;99378.06;;;12.31;86.86
51986;BME280;38002;53.296;6.600;2023-03-31T16:15:44;99367.56;;;12.21;86.96
51986;BME280;38002;53.296;6.600;2023-03-31T16:20:52;99362.94;;;12.08;86.95
51986;BME280;38002;53.296;6.600;2023-03-31T16:25:54;99371.56;;;12.05;87.74
51986;BME280;38002;53.296;6.600;2023-03-31T16:30:54;99367.75;;;12.00;87.86
51986;BME280;38002;53.296;6.600;2023-03-31T16:35:55;99367.56;;;11.95;87.98
51986;BME280;38002;53.296;6.600;2023-03-31T16:40:58;99366.94;;;11.93;87.44
51986;BME280;38002;53.296;6.600;2023-03-31T16:46:01;99364.63;;;11.90;87.89
51986;BME280;38002;53.296;6.600;2023-03-31T16:51:03;99365.03;;;11.87;88.00
51986;BME280;38002;53.296;6.600;2023-03-31T16:56:05;99365.47;;;11.90;88.37
51986;BME280;38002;53.296;6.600;2023-03-31T17:01:11;99367.75;;;11.87;88.34
51986;BME280;38002;53.296;6.600;2023-03-31T17:06:12;99356.22;;;11.85;88.89
51986;BME280;38002;53.296;6.600;2023-03-31T17:11:13;99361.47;;;11.79;88.75
51986;BME280;38002;53.296;6.600;2023-03-31T17:16:14;99367.31;;;11.76;89.30
51986;BME280;38002;53.296;6.600;2023-03-31T17:21:15;99364.34;;;11.71;89.28
51986;BME280;38002;53.296;6.600;2023-03-31T17:26:19;99363.69;;;11.63;89.31
51986;BME280;38002;53.296;6.600;2023-03-31T17:31:20;99367.69;;;11.60;89.73
51986;BME280;38002;53.296;6.600;2023-03-31T17:36:20;99356.56;;;11.62;89.71
51986;BME280;38002;53.296;6.600;2023-03-31T17:41:21;99363.69;;;11.63;89.79
51986;BME280;38002;53.296;6.600;2023-03-31T17:46:22;99372.06;;;11.55;90.30
51986;BME280;38002;53.296;6.600;2023-03-31T17:51:23;99369.69;;;11.38;89.93
51986;BME280;38002;53.296;6.600;2023-03-31T17:56:24;99378.66;;;11.26;90.36
51986;BME280;38002;53.296;6.600;2023-03-31T18:01:24;99375.03;;;11.19;90.25
51986;BME280;38002;53.296;6.600;2023-03-31T18:06:25;99372.66;;;11.03;91.52
51986;BME280;38002;53.296;6.600;2023-03-31T18:11:25;99374.31;;;10.97;90.92
51986;BME280;38002;53.296;6.600;2023-03-31T18:16:27;99375.56;;;10.95;91.06
51986;BME280;38002;53.296;6.600;2023-03-31T18:21:28;99378.28;;;10.95;91.47
51986;BME280;38002;53.296;6.600;2023-03-31T18:26:28;99376.78;;;10.92;91.39
51986;BME280;38002;53.296;6.600;2023-03-31T18:31:29;99379.91;;;10.89;91.60
51986;BME280;38002;53.296;6.600;2023-03-31T18:36:30;99378.63;;;10.85;91.86
51986;BME280;38002;53.296;6.600;2023-03-31T18:41:31;99393.00;;;10.79;91.46
51986;BME280;38002;53.296;6.600;2023-03-31T18:46:31;99383.38;;;10.70;92.21
51986;BME280;38002;53.296;6.600;2023-03-31T18:51:32;99398.34;;;10.66;91.94
51986;BME280;38002;53.296;6.600;2023-03-31T18:56:32;99401.69;;;10.61;91.39
51986;BME280;38002;53.296;6.600;2023-03-31T19:01:32;99396.84;;;10.57;91.02
51986;BME280;38002;53.296;6.600;2023-03-31T19:06:36;99409.78;;;10.55;91.10
51986;BME280;38002;53.296;6.600;2023-03-31T19:11:37;99401.19;;;10.51;91.37
51986;BME280;38002;53.296;6.600;2023-03-31T19:16:37;99406.19;;;10.48;91.09
51986;BME280;38002;53.296;6.600;2023-03-31T19:21:41;99410.53;;;10.42;91.44
51986;BME280;38002;53.296;6.600;2023-03-31T19:26:42;99409.88;;;10.40;91.47
51986;BME280;38002;53.296;6.600;2023-03-31T19:31:42;99417.00;;;10.41;91.39
51986;BME280;38002;53.296;6.600;2023-03-31T19:36:44;99406.78;;;10.43;91.72
51986;BME280;38002;53.296;6.600;2023-03-31T19:41:44;99400.09;;;10.45;91.42
51986;BME280;38002;53.296;6.600;2023-03-31T19:46:45;99405.53;;;10.45;91.91
51986;BME280;38002;53.296;6.600;2023-03-31T19:51:47;99393.38;;;10.41;92.16
51986;BME280;38002;53.296;6.600;2023-03-31T19:56:47;99415.09;;;10.35;91.87
51986;BME280;38002;53.296;6.600;2023-03-31T20:01:48;99408.72;;;10.28;92.67
51986;BME280;38002;53.296;6.600;2023-03-31T20:06:49;99406.00;;;10.28;92.69
51986;BME280;38002;53.296;6.600;2023-03-31T20:11:50;99408.53;;;10.29;92.18
51986;BME280;38002;53.296;6.600;2023-03-31T20:16:53;99396.44;;;10.32;92.31
51986;BME280;38002;53.296;6.600;2023-03-31T20:21:53;99393.34;;;10.35;92.52
51986;BME280;38002;53.296;6.600;2023-03-31T20:26:55;99391.06;;;10.38;92.30
51986;BME280;38002;53.296;6.600;2023-03-31T20:31:56;99393.56;;;10.40;92.46
51986;BME280;38002;53.296;6.600;2023-03-31T20:36:56;99391.91;;;10.39;92.62
51986;BME280;38002;53.296;6.600;2023-03-31T20:41:57;99390.41;;;10.36;93.12
51986;BME280;38002;53.296;6.600;2023-03-31T20:46:57;99403.16;;;10.36;92.88
51986;BME280;38002;53.296;6.600;2023-03-31T20:51:59;99394.56;;;10.32;92.75
51986;BME280;38002;53.296;6.600;2023-03-31T20:57:00;99411.53;;;10.34;93.22
51986;BME280;38002;53.296;6.600;2023-03-31T21:02:04;99408.34;;;10.31;93.24
51986;BME280;38002;53.296;6.600;2023-03-31T21:07:05;99400.97;;;10.25;93.15
51986;BME280;38002;53.296;6.600;2023-03-31T21:12:05;99406.81;;;10.22;93.02
51986;BME280;38002;53.296;6.600;2023-03-31T21:17:06;99409.06;;;10.18;93.54
51986;BME280;38002;53.296;6.600;2023-03-31T21:22:07;99407.19;;;10.19;92.89
51986;BME280;38002;53.296;6.600;2023-03-31T21:27:07;99411.75;;;10.18;93.01
51986;BME280;38002;53.296;6.600;2023-03-31T21:32:08;99414.88;;;10.15;93.21
51986;BME280;38002;53.296;6.600;2023-03-31T21:37:08;99406.72;;;10.15;93.31
51986;BME280;38002;53.296;6.600;2023-03-31T21:42:09;99411.69;;;10.12;92.90
51986;BME280;38002;53.296;6.600;2023-03-31T21:47:10;99415.44;;;10.11;93.46
51986;BME280;38002;53.296;6.600;2023-03-31T21:52:11;99410.00;;;10.11;92.92
51986;BME280;38002;53.296;6.600;2023-03-31T21:57:11;99409.16;;;10.10;93.59
51986;BME280;38002;53.296;6.600;2023-03-31T22:02:12;99412.72;;;10.11;93.29
51986;BME280;38002;53.296;6.600;2023-03-31T22:07:12;99412.72;;;10.11;93.59
51986;BME280;38002;53.296;6.600;2023-03-31T22:12:13;99421.25;;;10.08;93.22
51986;BME280;38002;53.296;6.600;2023-03-31T22:17:14;99417.06;;;10.05;93.56
51986;BME280;38002;53.296;6.600;2023-03-31T22:22:15;99416.84;;;10.07;93.45
51986;BME280;38002;53.296;6.600;2023-03-31T22:27:16;99427.09;;;10.05;93.86
51986;BME280;38002;53.296;6.600;2023-03-31T22:32:16;99424.56;;;10.03;94.13
51986;BME280;38002;53.296;6.600;2023-03-31T22:37:19;99425.41;;;10.03;93.79
51986;BME280;38002;53.296;6.600;2023-03-31T22:42:19;99425.41;;;10.03;94.18
51986;BME280;38002;53.296;6.600;2023-03-31T22:47:20;99423.72;;;10.02;93.85
51986;BME280;38002;53.296;6.600;2023-03-31T22:52:20;99422.03;;;10.01;94.12
51986;BME280;38002;53.296;6.600;2023-03-31T22:57:21;99428.13;;;10.03;93.99
51986;BME280;38002;53.296;6.600;2023-03-31T23:02:21;99437.28;;;10.02;94.23
51986;BME280;38002;53.296;6.600;2023-03-31T23:07:22;99433.94;;;10.00;93.85
51986;BME280;38002;53.296;6.600;2023-03-31T23:12:26;99437.47;;;10.01;94.59
51986;BME280;38002;53.296;6.600;2023-03-31T23:17:27;99429.31;;;10.01;93.83
51986;BME280;38002;53.296;6.600;2023-03-31T23:22:27;99434.97;;;9.99;93.93
51986;BME280;38002;53.296;6.600;2023-03-31T23:27:27;99428.03;;;9.97;94.43
51986;BME280;38002;53.296;6.600;2023-03-31T23:32:28;99433.22;;;9.92;94.05
51986;BME280;38002;53.296;6.600;2023-03-31T23:37:28;99434.66;;;9.88;94.90
51986;BME280;38002;53.296;6.600;2023-03-31T23:42:29;99432.75;;;9.88;94.55
51986;BME280;38002;53.296;6.600;2023-03-31T23:47:29;99431.44;;;9.84;95.31
51986;BME280;38002;53.296;6.600;2023-03-31T23:52:31;99432.50;;;9.83;95.18
51986;BME280;38002;53.296;6.600;2023-03-31T23:57:34;99430.56;;;9.77;95.70
